Time;durP1;ratioP1;P1;durP2;ratioP2;P2;SDS_P1;SDS_P2;PMS_P1;PMS_P2;Temp;Humidity;BMP_temperature;BMP_pressure;BME280_temperature;BME280_humidity;BME280_pressure;Samples;Min_cycle;Max_cycle;Signal;HPM_P1;HPM_P2
2022/04/27 00:00:48;;;;;;;10.67;6.20;;;;;;;7.23;77.33;102275.53;4990788;28;20677;-76
2022/04/27 00:03:13;;;;;;;9.60;6.00;;;;;;;7.29;77.41;102275.88;5009915;28;20195;-76
2022/04/27 00:05:39;;;;;;;8.13;5.83;;;;;;;7.27;77.35;102274.94;4992486;28;20305;-76
2022/04/27 00:08:05;;;;;;;8.97;6.60;;;;;;;7.29;76.79;102274.22;4991993;28;20188;-76
2022/04/27 00:10:30;;;;;;;7.23;6.40;;;;;;;7.29;76.64;102266.56;5009561;28;20215;-76
2022/04/27 00:12:55;;;;;;;8.27;5.93;;;;;;;7.26;77.50;102274.03;4956208;28;20243;-76
2022/04/27 00:15:23;;;;;;;10.37;6.73;;;;;;;7.29;77.52;102274.22;4996261;28;20576;-74
2022/04/27 00:17:48;;;;;;;10.47;6.43;;;;;;;7.41;77.03;102276.56;5009487;28;20208;-74
2022/04/27 00:20:14;;;;;;;9.47;6.50;;;;;;;7.52;77.92;102276.34;4992190;28;20230;-76
2022/04/27 00:22:39;;;;;;;10.67;6.97;;;;;;;7.60;77.72;102275.06;4983290;28;20195;-75
2022/04/27 00:25:05;;;;;;;9.90;6.27;;;;;;;7.63;78.28;102275.25;4988170;28;20184;-75
2022/04/27 00:27:31;;;;;;;10.40;6.53;;;;;;;7.65;77.60;102268.53;4990124;28;20214;-76
2022/04/27 00:29:58;;;;;;;12.03;6.03;;;;;;;7.67;77.40;102266.97;4996000;28;20207;-76
2022/04/27 00:32:24;;;;;;;12.63;6.70;;;;;;;7.70;77.31;102272.22;4979234;28;20199;-74
2022/04/27 00:34:49;;;;;;;10.40;6.37;;;;;;;7.71;77.89;102268.00;5009534;28;20196;-76
2022/04/27 00:37:15;;;;;;;9.40;6.17;;;;;;;7.75;78.48;102269.94;4980114;28;20675;-75
2022/04/27 00:39:40;;;;;;;11.60;6.83;;;;;;;7.78;77.74;102268.41;4986035;28;20208;-76
2022/04/27 00:42:17;;;;;;;8.37;6.30;;;;;;;7.78;78.42;102270.09;5000607;28;20191;-75
2022/04/27 00:44:44;;;;;;;9.00;6.57;;;;;;;7.80;78.65;102271.06;4992490;28;20217;-75
2022/04/27 00:47:15;;;;;;;10.13;7.00;;;;;;;7.80;78.48;102277.03;5012014;28;20227;-76
2022/04/27 00:49:49;;;;;;;9.93;6.57;;;;;;;7.82;78.23;102272.88;4976788;28;20727;-76
2022/04/27 00:52:15;;;;;;;10.43;6.83;;;;;;;7.87;77.99;102281.66;5002524;28;20245;-75
2022/04/27 00:54:42;;;;;;;9.40;6.10;;;;;;;7.88;78.80;102278.28;4992887;28;20192;-77
2022/04/27 00:57:08;;;;;;;11.10;6.40;;;;;;;7.89;78.16;102290.28;4987362;28;20278;-76
2022/04/27 00:59:34;;;;;;;8.83;6.20;;;;;;;7.87;78.04;102276.56;4993683;28;20198;-77
2022/04/27 01:02:00;;;;;;;9.13;5.80;;;;;;;7.94;77.47;102276.09;5008541;28;20180;-74
2022/04/27 01:04:26;;;;;;;10.00;6.53;;;;;;;7.96;77.53;102279.59;4991661;28;20223;-75
2022/04/27 01:06:51;;;;;;;9.37;6.10;;;;;;;7.99;77.42;102282.31;5006975;28;20286;-77
2022/04/27 01:09:18;;;;;;;10.20;6.00;;;;;;;8.01;77.36;102277.28;4984327;28;20645;-77
2022/04/27 01:11:44;;;;;;;10.30;5.70;;;;;;;8.02;77.11;102282.44;4989747;28;20539;-77
2022/04/27 01:14:10;;;;;;;9.70;5.73;;;;;;;8.00;77.31;102288.28;4999769;28;20215;-77
2022/04/27 01:16:35;;;;;;;6.37;5.50;;;;;;;8.03;76.77;102283.34;4982095;28;20215;-75
2022/04/27 01:19:01;;;;;;;10.97;5.67;;;;;;;8.04;76.53;102280.88;5000242;23;20195;-81
2022/04/27 01:21:26;;;;;;;10.10;6.17;;;;;;;8.01;76.69;102282.41;4999262;28;20214;-78
2022/04/27 01:24:04;;;;;;;10.53;6.03;;;;;;;8.01;77.23;102285.81;5001335;28;20229;-78
2022/04/27 01:26:29;;;;;;;10.53;5.90;;;;;;;8.02;77.39;102291.78;4981320;28;20269;-79
2022/04/27 01:28:54;;;;;;;10.97;6.57;;;;;;;8.03;76.28;102293.53;5001138;28;20191;-79
2022/04/27 01:31:20;;;;;;;8.57;6.00;;;;;;;8.03;76.82;102302.09;5001847;28;20186;-77
2022/04/27 01:33:47;;;;;;;12.80;6.97;;;;;;;8.02;76.97;102299.44;4986541;28;20194;-81
2022/04/27 01:36:13;;;;;;;11.00;6.23;;;;;;;7.98;76.49;102298.41;5000724;28;20218;-79
2022/04/27 01:38:43;;;;;;;11.40;6.27;;;;;;;8.03;76.37;102299.53;5015455;28;20584;-77
2022/04/27 01:41:09;;;;;;;11.03;5.80;;;;;;;8.05;76.66;102307.25;4980678;28;20199;-79
2022/04/27 01:43:35;;;;;;;12.37;6.30;;;;;;;8.02;77.05;102315.59;4977979;28;20189;-81
2022/04/27 01:46:02;;;;;;;13.00;6.50;;;;;;;7.99;76.96;102312.03;5013341;28;20647;-78
2022/04/27 01:48:28;;;;;;;11.23;6.33;;;;;;;7.96;76.43;102322.06;5016308;28;20183;-79
2022/04/27 01:50:54;;;;;;;8.77;6.07;;;;;;;7.97;76.38;102316.19;4983835;28;20275;-79
2022/04/27 01:56:06;;;;;;;8.67;6.57;;;;;;;7.89;76.64;102320.00;4994310;28;20211;-78
2022/04/27 01:58:39;;;;;;;13.30;6.93;;;;;;;7.84;76.81;102316.31;4988534;28;20217;-76
2022/04/27 02:01:04;;;;;;;15.83;10.80;;;;;;;7.80;77.20;102312.72;5012936;28;20704;-77
2022/04/27 02:03:30;;;;;;;21.03;13.50;;;;;;;7.76;77.33;102312.47;4997624;28;20187;-78
2022/04/27 02:05:56;;;;;;;17.00;10.43;;;;;;;7.71;77.65;102314.78;4998278;28;20183;-80
2022/04/27 02:08:23;;;;;;;17.30;11.97;;;;;;;7.66;76.91;102317.88;4999340;28;20556;-78
2022/04/27 02:10:49;;;;;;;12.70;8.40;;;;;;;7.59;77.90;102321.75;4999197;28;20217;-78
2022/04/27 02:13:14;;;;;;;16.27;9.73;;;;;;;7.57;77.89;102320.81;4999389;28;20184;-79
2022/04/27 02:15:40;;;;;;;10.77;8.37;;;;;;;7.53;78.08;102318.88;5006748;28;20265;-76
2022/04/27 02:18:19;;;;;;;9.90;7.27;;;;;;;7.49;77.96;102319.50;4984575;28;20253;-78
2022/04/27 02:20:45;;;;;;;9.90;6.87;;;;;;;7.48;77.61;102332.16;5003349;28;20211;-79
2022/04/27 02:23:10;;;;;;;13.87;7.80;;;;;;;7.51;77.72;102334.88;5019248;28;20193;-77
2022/04/27 02:25:36;;;;;;;11.90;7.20;;;;;;;7.51;77.86;102342.53;5016323;28;20198;-79
2022/04/27 02:28:01;;;;;;;9.87;6.80;;;;;;;7.49;77.50;102339.88;5012697;28;20247;-80
2022/04/27 02:30:26;;;;;;;14.47;8.07;;;;;;;7.43;77.97;102341.22;4995752;28;20222;-80
2022/04/27 02:32:52;;;;;;;11.97;6.80;;;;;;;7.42;78.32;102342.88;5013137;28;20817;-79
2022/04/27 02:35:18;;;;;;;10.43;7.43;;;;;;;7.37;78.50;102345.97;5011833;28;20225;-81
2022/04/27 02:37:45;;;;;;;11.87;7.20;;;;;;;7.33;78.01;102344.03;5005220;28;20272;-78
2022/04/27 02:40:10;;;;;;;13.20;7.33;;;;;;;7.32;78.42;102347.38;5014653;28;20260;-78
2022/04/27 02:42:37;;;;;;;10.43;8.37;;;;;;;7.29;78.83;102349.75;5005436;28;20187;-78
2022/04/27 02:45:03;;;;;;;9.63;6.80;;;;;;;7.24;78.79;102349.47;4980561;28;20183;-79
2022/04/27 02:47:30;;;;;;;13.33;7.87;;;;;;;7.21;79.22;102336.59;5024823;28;20271;-80
2022/04/27 02:52:53;;;;;;;11.60;8.13;;;;;;;7.13;78.56;102350.53;4997654;28;20577;-80
2022/04/27 02:55:34;;;;;;;13.60;8.10;;;;;;;7.12;78.80;102355.53;4996623;28;20187;-78
2022/04/27 02:57:59;;;;;;;10.70;7.30;;;;;;;7.07;79.51;102362.94;5015987;28;20207;-78
2022/04/27 03:00:27;;;;;;;13.43;8.20;;;;;;;7.06;79.68;102363.75;5002353;28;20203;-79
2022/04/27 03:02:54;;;;;;;13.63;8.27;;;;;;;7.06;78.98;102360.28;4995582;28;20186;-80
2022/04/27 03:05:22;;;;;;;12.63;8.40;;;;;;;7.01;79.82;102361.72;4997641;28;20205;-79
2022/04/27 03:07:47;;;;;;;15.10;8.23;;;;;;;6.94;79.92;102364.66;5001648;28;20266;-78
2022/04/27 03:10:12;;;;;;;16.27;8.10;;;;;;;6.87;80.06;102360.88;5007504;28;20222;-81
2022/04/27 03:12:38;;;;;;;13.10;8.43;;;;;;;6.85;79.69;102357.38;4983758;28;20560;-78
2022/04/27 03:15:06;;;;;;;11.20;8.50;;;;;;;6.81;80.04;102355.44;5001111;28;20183;-78
2022/04/27 03:17:31;;;;;;;12.33;8.77;;;;;;;6.76;79.49;102350.88;5000115;28;20207;-78
2022/04/27 03:19:58;;;;;;;12.07;8.33;;;;;;;6.65;79.56;102355.34;5004873;28;20229;-76
2022/04/27 03:22:24;;;;;;;14.43;8.80;;;;;;;6.54;80.53;102353.81;5028160;28;20187;-78
2022/04/27 03:24:49;;;;;;;11.77;8.70;;;;;;;6.54;80.91;102350.41;5003208;28;20206;-77
2022/04/27 03:27:23;;;;;;;12.43;8.40;;;;;;;6.56;80.56;102361.53;4983835;28;20610;-78
2022/04/27 03:29:49;;;;;;;17.27;8.63;;;;;;;6.58;80.67;102371.03;5000807;28;20227;-78
2022/04/27 03:32:14;;;;;;;14.00;8.83;;;;;;;6.57;80.43;102379.47;5023086;28;20325;-78
2022/04/27 03:34:47;;;;;;;11.33;8.33;;;;;;;6.56;80.17;102379.34;5006380;28;20710;-81
2022/04/27 03:37:12;;;;;;;12.60;8.07;;;;;;;6.47;80.58;102378.81;4985255;28;20219;-78
2022/04/27 03:39:37;;;;;;;14.20;8.67;;;;;;;6.47;80.64;102392.41;5006199;28;20202;-78
2022/04/27 03:42:03;;;;;;;15.57;9.00;;;;;;;6.48;81.39;102398.38;5007612;28;20179;-78
2022/04/27 03:44:30;;;;;;;13.97;8.60;;;;;;;6.46;82.05;102400.84;5015858;28;20649;-80
2022/04/27 03:46:55;;;;;;;14.83;9.00;;;;;;;6.46;81.84;102400.84;5003765;28;20270;-79
2022/04/27 03:49:21;;;;;;;10.73;8.43;;;;;;;6.45;81.72;102408.38;5005827;28;20211;-79
2022/04/27 03:51:47;;;;;;;14.07;8.50;;;;;;;6.42;82.77;102410.72;4989668;28;20214;-77
2022/04/27 03:54:14;;;;;;;12.27;8.17;;;;;;;6.42;82.30;102405.63;5007783;28;20183;-79
2022/04/27 03:56:40;;;;;;;12.97;8.20;;;;;;;6.46;82.33;102411.03;5012438;28;20226;-78
2022/04/27 03:59:08;;;;;;;16.27;9.30;;;;;;;6.44;81.81;102412.56;5005090;28;20182;-80
2022/04/27 04:01:33;;;;;;;16.20;8.50;;;;;;;6.45;82.09;102411.78;5010001;28;20282;-78
2022/04/27 04:03:59;;;;;;;10.63;8.50;;;;;;;6.46;81.76;102412.66;5011646;28;20187;-78
2022/04/27 04:06:25;;;;;;;11.23;8.47;;;;;;;6.40;81.93;102418.25;4985217;28;20638;-78
2022/04/27 04:08:51;;;;;;;16.60;8.90;;;;;;;6.47;81.57;102414.44;5001190;28;20210;-78
2022/04/27 04:11:19;;;;;;;11.57;8.47;;;;;;;6.49;81.90;102416.28;5024027;28;20202;-79
2022/04/27 04:13:58;;;;;;;14.37;8.83;;;;;;;6.49;81.56;102423.03;4985824;28;20198;-79
2022/04/27 04:16:35;;;;;;;15.50;9.23;;;;;;;6.51;81.86;102424.00;5003585;28;20586;-78
2022/04/27 04:19:19;;;;;;;21.93;9.80;;;;;;;6.52;82.66;102425.75;5018133;28;20221;-77
2022/04/27 04:22:04;;;;;;;11.50;8.23;;;;;;;6.51;81.84;102429.09;5000805;28;20182;-77
2022/04/27 04:28:29;;;;;;;13.63;8.03;;;;;;;6.54;82.02;102437.78;5019679;28;20183;-79
2022/04/27 04:30:13;;;;;;;14.73;8.40;;;;;;;6.55;81.76;102444.66;5010890;28;20206;-79
2022/04/27 04:32:41;;;;;;;12.40;8.13;;;;;;;6.55;81.62;102439.56;4986103;28;20183;-78
2022/04/27 04:35:30;;;;;;;12.57;7.87;;;;;;;6.60;81.56;102447.47;4985345;28;20188;-76
2022/04/27 04:37:56;;;;;;;12.87;8.70;;;;;;;6.58;81.44;102447.38;4986156;28;20750;-80
2022/04/27 04:40:23;;;;;;;11.83;8.30;;;;;;;6.58;81.07;102446.50;5021851;28;20226;-78
2022/04/27 04:42:49;;;;;;;14.37;9.07;;;;;;;6.58;81.73;102455.00;5004169;28;20187;-78
2022/04/27 04:45:14;;;;;;;12.00;8.70;;;;;;;6.58;81.52;102457.53;4996745;28;20179;-79
2022/04/27 04:47:54;;;;;;;14.20;8.57;;;;;;;6.59;81.14;102459.28;4981624;28;20176;-78
2022/04/27 04:50:42;;;;;;;14.63;8.07;;;;;;;6.65;80.93;102461.34;5013833;28;20261;-79
2022/04/27 04:53:37;;;;;;;12.50;7.50;;;;;;;6.63;81.06;102473.97;4997230;28;20248;-78
2022/04/27 04:56:23;;;;;;;10.13;7.10;;;;;;;6.67;81.01;102465.75;4991002;28;20321;-78
2022/04/27 04:58:48;;;;;;;14.60;8.27;;;;;;;6.72;80.11;102478.75;4999739;28;20281;-79
2022/04/27 05:01:42;;;;;;;13.60;7.77;;;;;;;6.75;80.65;102471.28;4983982;28;20836;-77
2022/04/27 05:04:32;;;;;;;15.00;7.70;;;;;;;6.77;80.59;102474.81;5003788;28;20187;-80
2022/04/27 05:07:18;;;;;;;11.73;7.57;;;;;;;6.77;80.47;102478.22;5015457;28;20329;-80
2022/04/27 05:10:01;;;;;;;10.37;7.30;;;;;;;6.80;80.61;102473.34;4983016;28;20353;-77
2022/04/27 05:12:46;;;;;;;12.83;7.50;;;;;;;6.81;80.20;102476.78;4999716;28;20294;-79
2022/04/27 05:15:30;;;;;;;15.73;7.50;;;;;;;6.84;80.49;102480.38;5017847;28;20237;-81
2022/04/27 05:18:12;;;;;;;11.63;7.63;;;;;;;7.00;80.26;102479.63;5015310;28;20267;-80
2022/04/27 05:21:10;;;;;;;10.30;7.07;;;;;;;7.07;79.24;102489.38;5018933;28;20249;-81
2022/04/27 05:23:44;;;;;;;11.33;6.93;;;;;;;7.07;79.50;102480.09;4993496;28;20193;-80
2022/04/27 05:26:40;;;;;;;12.97;6.83;;;;;;;7.09;79.58;102493.78;4992902;28;20199;-79
2022/04/27 05:32:43;;;;;;;10.77;6.63;;;;;;;7.35;77.82;102501.31;4999518;28;20313;-79
2022/04/27 05:35:27;;;;;;;10.87;6.53;;;;;;;7.58;77.67;102502.63;5000168;28;20225;-82
2022/04/27 05:38:21;;;;;;;14.60;6.80;;;;;;;7.80;76.80;102496.31;4959750;28;20788;-80
2022/04/27 05:41:11;;;;;;;11.47;5.97;;;;;;;8.10;75.66;102497.13;4996758;28;20215;-79
2022/04/27 05:44:02;;;;;;;10.90;6.30;;;;;;;8.31;74.53;102499.25;4979190;28;20929;-78
2022/04/27 05:46:30;;;;;;;10.60;5.70;;;;;;;8.55;73.82;102502.22;5008816;28;20601;-80
2022/04/27 05:49:22;;;;;;;11.17;5.37;;;;;;;8.68;74.33;102507.22;4999322;28;20226;-81
2022/04/27 05:52:06;;;;;;;9.47;5.30;;;;;;;8.85;72.60;102501.34;5018746;28;20233;-80
2022/04/27 05:54:49;;;;;;;10.07;5.10;;;;;;;8.88;71.97;102510.03;5002769;28;20178;-80
2022/04/27 05:57:29;;;;;;;10.57;5.20;;;;;;;8.88;72.26;102507.47;5000311;28;20218;-79
2022/04/27 06:00:11;;;;;;;10.37;5.30;;;;;;;8.63;72.92;102508.63;4985423;28;20199;-81
2022/04/27 06:02:47;;;;;;;10.63;5.63;;;;;;;8.59;72.99;102519.47;5020487;28;20663;-79
2022/04/27 06:05:17;;;;;;;6.90;4.30;;;;;;;8.97;72.18;102514.72;5017447;28;20276;-79
2022/04/27 06:07:43;;;;;;;10.97;4.83;;;;;;;9.08;72.11;102518.75;5005741;28;20191;-81
2022/04/27 06:10:12;;;;;;;7.30;4.27;;;;;;;9.37;71.25;102516.88;5001131;28;20823;-82
2022/04/27 06:12:48;;;;;;;9.30;4.43;;;;;;;9.58;71.08;102520.50;4999997;28;20732;-81
2022/04/27 06:15:46;;;;;;;10.70;4.37;;;;;;;9.83;70.54;102525.16;4962132;28;20187;-80
2022/04/27 06:18:30;;;;;;;8.30;4.20;;;;;;;10.00;68.60;102520.06;5004534;28;20198;-81
2022/04/27 06:20:56;;;;;;;8.73;4.77;;;;;;;10.18;68.93;102522.69;5000923;28;20571;-80
2022/04/27 06:23:23;;;;;;;11.80;4.70;;;;;;;10.05;70.01;102533.13;5005085;28;20293;-82
2022/04/27 06:25:49;;;;;;;10.87;4.70;;;;;;;10.02;68.80;102533.81;5022116;28;20186;-81
2022/04/27 06:28:19;;;;;;;8.13;4.67;;;;;;;10.20;67.68;102528.75;5019050;28;20182;-80
2022/04/27 06:30:45;;;;;;;9.13;4.10;;;;;;;10.42;68.49;102536.63;5004188;28;20210;-79
2022/04/27 06:33:12;;;;;;;7.50;4.20;;;;;;;10.40;67.94;102531.44;5019595;28;20217;-81
2022/04/27 06:35:40;;;;;;;8.03;3.83;;;;;;;10.48;67.63;102534.34;5019199;28;20679;-78
2022/04/27 06:38:12;;;;;;;5.73;3.70;;;;;;;10.44;67.30;102535.00;5019479;28;20217;-81
2022/04/27 06:40:38;;;;;;;6.33;3.90;;;;;;;10.72;67.23;102538.03;5013499;28;20596;-81
2022/04/27 06:43:04;;;;;;;9.50;4.50;;;;;;;10.97;65.64;102540.94;4999546;28;20265;-82
2022/04/27 06:45:49;;;;;;;8.40;3.70;;;;;;;11.18;65.73;102540.19;5015450;28;20193;-81
2022/04/27 06:48:33;;;;;;;6.67;3.93;;;;;;;11.06;65.96;102542.19;5015129;28;20198;-79
2022/04/27 06:51:18;;;;;;;10.10;3.90;;;;;;;11.00;65.71;102552.19;5018422;28;20221;-79
2022/04/27 06:54:03;;;;;;;8.70;3.97;;;;;;;11.00;66.02;102549.63;5008464;28;20206;-80
2022/04/27 06:56:47;;;;;;;10.03;4.20;;;;;;;11.06;65.02;102538.78;5019966;28;20266;-80
2022/04/27 06:59:37;;;;;;;9.93;3.63;;;;;;;11.28;64.16;102546.56;4970602;28;20207;-80
2022/04/27 07:02:09;;;;;;;8.57;3.83;;;;;;;11.53;63.37;102550.28;5009353;28;20660;-82
2022/04/27 07:04:36;;;;;;;8.73;3.30;;;;;;;11.54;63.50;102551.16;4984517;28;20567;-79
2022/04/27 07:07:02;;;;;;;8.90;3.83;;;;;;;11.57;63.73;102546.16;5000447;28;20187;-78
2022/04/27 07:09:29;;;;;;;7.13;3.63;;;;;;;11.43;62.32;102554.97;5000382;28;20211;-81
2022/04/27 07:11:55;;;;;;;8.63;3.87;;;;;;;11.51;62.33;102548.44;5018318;28;20187;-80
2022/04/27 07:14:20;;;;;;;6.47;3.20;;;;;;;11.92;62.31;102552.00;5013976;28;20205;-79
2022/04/27 07:16:45;;;;;;;10.17;3.70;;;;;;;12.00;62.66;102550.63;5000449;28;20229;-81
2022/04/27 07:19:12;;;;;;;11.13;3.90;;;;;;;12.07;61.75;102550.03;5019163;28;20269;-81
2022/04/27 07:21:38;;;;;;;9.13;4.43;;;;;;;12.19;61.21;102552.22;4969388;28;20231;-82
2022/04/27 07:24:04;;;;;;;9.80;3.90;;;;;;;12.30;60.17;102561.25;4980253;28;20254;-82
2022/04/27 07:26:30;;;;;;;7.80;3.47;;;;;;;12.43;59.92;102566.03;4977700;28;20617;-81
2022/04/27 07:28:56;;;;;;;12.97;4.67;;;;;;;12.42;60.07;102566.88;4975382;28;20192;-83
2022/04/27 07:31:22;;;;;;;9.20;3.70;;;;;;;12.64;60.13;102561.75;4976542;28;20299;-80
2022/04/27 07:33:47;;;;;;;6.70;3.80;;;;;;;12.66;60.48;102567.81;4995885;28;20199;-81
2022/04/27 07:36:13;;;;;;;7.00;3.97;;;;;;;12.64;59.25;102566.88;4994578;28;20199;-81
2022/04/27 07:38:38;;;;;;;8.60;3.50;;;;;;;12.73;58.20;102567.25;4995682;28;20196;-81
2022/04/27 07:41:05;;;;;;;8.13;3.70;;;;;;;12.75;59.14;102569.06;4966081;28;20214;-80
2022/04/27 07:43:30;;;;;;;9.27;3.70;;;;;;;12.72;57.98;102566.34;4978270;28;20282;-79
2022/04/27 07:45:55;;;;;;;6.30;3.63;;;;;;;12.76;58.87;102569.94;4978702;28;20846;-79
2022/04/27 07:48:21;;;;;;;6.53;3.50;;;;;;;13.06;58.93;102568.53;4958158;28;20195;-79
2022/04/27 07:50:46;;;;;;;9.60;3.90;;;;;;;13.04;58.18;102583.06;4971560;28;20598;-79
2022/04/27 07:53:11;;;;;;;8.47;3.97;;;;;;;13.10;58.28;102582.38;4999198;28;20192;-79
2022/04/27 07:55:37;;;;;;;8.23;3.67;;;;;;;13.03;57.25;102589.00;4996285;28;20203;-80
2022/04/27 07:58:03;;;;;;;11.10;4.03;;;;;;;13.20;57.98;102594.75;4995211;28;20227;-79
2022/04/27 08:00:29;;;;;;;7.33;3.73;;;;;;;13.44;57.51;102598.25;5000038;28;20222;-81
2022/04/27 08:02:55;;;;;;;10.37;3.70;;;;;;;13.54;57.13;102608.03;4996978;28;20544;-79
2022/04/27 08:05:20;;;;;;;7.60;3.60;;;;;;;13.57;55.92;102603.88;4986378;28;20198;-80
2022/04/27 08:07:46;;;;;;;6.70;3.40;;;;;;;13.58;55.45;102597.91;4980096;28;20190;-79
2022/04/27 08:10:14;;;;;;;9.63;4.00;;;;;;;13.78;55.84;102602.06;4984711;28;20253;-79
2022/04/27 08:12:40;;;;;;;8.73;3.97;;;;;;;13.98;55.41;102601.03;5000307;28;20196;-78
2022/04/27 08:15:07;;;;;;;7.30;3.40;;;;;;;13.87;55.16;102598.91;4963445;28;20307;-79
2022/04/27 08:17:33;;;;;;;7.97;3.60;;;;;;;14.07;54.45;102603.03;4989117;28;20206;-79
2022/04/27 08:22:43;;;;;;;8.57;3.20;;;;;;;14.20;53.95;102603.53;4994794;28;20192;-80
2022/04/27 08:25:08;;;;;;;12.63;3.53;;;;;;;14.48;53.74;102600.13;5021235;28;20249;-78
2022/04/27 08:27:34;;;;;;;6.93;3.17;;;;;;;14.81;52.59;102604.63;4991973;28;20194;-79
2022/04/27 08:29:59;;;;;;;8.90;4.07;;;;;;;14.92;52.77;102608.41;4995774;28;20587;-80
2022/04/27 08:32:24;;;;;;;5.93;3.20;;;;;;;15.30;51.67;102609.53;5019368;28;20775;-79
2022/04/27 08:34:50;;;;;;;8.43;4.03;;;;;;;15.48;51.13;102605.78;5019112;28;20559;-80
2022/04/27 08:37:15;;;;;;;7.10;3.87;;;;;;;15.32;51.02;102610.44;5018244;28;20688;-80
2022/04/27 08:39:40;;;;;;;5.97;3.63;;;;;;;15.52;50.62;102610.19;4993849;28;20210;-80
2022/04/27 08:42:06;;;;;;;6.53;3.50;;;;;;;15.76;50.69;102613.47;4993230;28;20199;-81
2022/04/27 08:44:32;;;;;;;9.13;3.40;;;;;;;15.95;49.41;102614.81;5003108;28;20198;-83
2022/04/27 08:46:58;;;;;;;9.23;3.30;;;;;;;15.48;50.19;102617.84;5023220;28;20198;-82
2022/04/27 08:49:23;;;;;;;7.80;3.70;;;;;;;15.63;49.58;102620.84;4991705;28;20582;-79
2022/04/27 08:51:49;;;;;;;6.87;3.70;;;;;;;15.80;48.34;102612.69;5013782;28;20287;-79
2022/04/27 08:54:15;;;;;;;9.73;3.63;;;;;;;15.80;49.43;102611.84;5017537;28;20266;-75
2022/04/27 08:56:40;;;;;;;8.43;4.10;;;;;;;16.14;48.00;102622.19;4986883;28;20215;-76
2022/04/27 08:59:08;;;;;;;8.37;3.90;;;;;;;16.78;46.91;102610.91;4973593;28;20188;-75
2022/04/27 09:01:34;;;;;;;7.67;3.70;;;;;;;16.79;46.97;102610.03;4973584;28;20569;-75
2022/04/27 09:04:16;;;;;;;6.67;3.57;;;;;;;16.56;46.75;102610.34;4989745;28;20191;-75
2022/04/27 09:06:42;;;;;;;9.10;4.10;;;;;;;16.99;45.43;102613.94;4990666;28;20199;-75
2022/04/27 09:09:10;;;;;;;7.47;3.63;;;;;;;17.06;45.44;102605.47;4991029;28;20183;-75
2022/04/27 09:11:37;;;;;;;9.23;4.10;;;;;;;17.48;43.61;102614.16;4990747;28;20267;-75
2022/04/27 09:14:04;;;;;;;6.30;3.67;;;;;;;17.51;45.63;102619.41;4988868;28;20200;-75
2022/04/27 09:22:08;;;;;;;7.70;4.70;;;;;;;17.11;45.74;102611.63;4998253;28;20205;-82
2022/04/27 09:24:47;;;;;;;10.40;4.33;;;;;;;17.70;45.58;102608.53;4996752;28;20681;-80
2022/04/27 09:27:16;;;;;;;7.70;4.53;;;;;;;17.91;44.63;102606.31;4997187;28;20231;-80
2022/04/27 09:29:42;;;;;;;8.17;4.17;;;;;;;18.16;44.21;102602.44;4980790;28;20270;-80
2022/04/27 09:32:08;;;;;;;9.53;4.60;;;;;;;18.29;42.82;102607.84;5001316;28;20802;-82
2022/04/27 09:34:47;;;;;;;9.00;4.70;;;;;;;18.11;43.43;102607.56;4994941;28;20206;-80
2022/04/27 09:37:16;;;;;;;6.60;4.57;;;;;;;18.06;44.47;102606.59;4979030;28;20222;-80
2022/04/27 09:39:43;;;;;;;9.63;5.43;;;;;;;18.00;43.30;102610.81;4994526;28;20266;-80
2022/04/27 09:42:12;;;;;;;7.43;4.53;;;;;;;18.23;42.91;102597.38;4963069;28;20696;-79
2022/04/27 09:44:38;;;;;;;9.53;4.57;;;;;;;18.41;43.45;102602.91;4994352;28;20192;-80
2022/04/27 09:47:06;;;;;;;10.70;4.73;;;;;;;18.74;42.71;102595.59;4979021;28;20192;-80
2022/04/27 09:49:32;;;;;;;12.47;5.87;;;;;;;18.91;43.06;102596.72;4982398;28;20227;-80
2022/04/27 09:52:00;;;;;;;11.10;5.60;;;;;;;18.08;42.55;102598.84;4996464;28;20297;-80
2022/04/27 09:54:29;;;;;;;14.20;5.70;;;;;;;18.00;42.37;102590.09;4987795;28;20207;-79
2022/04/27 09:56:59;;;;;;;8.97;5.60;;;;;;;18.36;42.54;102595.88;4964347;28;20270;-79
2022/04/27 09:59:35;;;;;;;9.17;4.80;;;;;;;19.01;41.65;102590.78;4976672;28;20218;-81
2022/04/27 10:02:06;;;;;;;10.27;4.77;;;;;;;19.17;40.29;102592.72;4980755;28;20712;-80
2022/04/27 10:04:31;;;;;;;8.17;5.13;;;;;;;19.37;39.75;102587.81;4984853;28;20195;-82
2022/04/27 10:06:58;;;;;;;6.80;5.10;;;;;;;19.10;40.82;102588.31;4992230;28;20250;-82
2022/04/27 10:09:26;;;;;;;10.40;4.87;;;;;;;19.50;39.80;102587.09;4989670;28;20212;-81
2022/04/27 10:11:53;;;;;;;9.43;4.73;;;;;;;19.54;39.54;102589.75;4979144;28;20202;-80
2022/04/27 10:14:18;;;;;;;7.40;5.50;;;;;;;19.00;40.19;102586.47;4979077;28;20183;-79
2022/04/27 10:16:44;;;;;;;11.40;5.97;;;;;;;19.16;39.27;102585.78;4979886;28;20224;-81
2022/04/27 10:19:10;;;;;;;7.87;4.73;;;;;;;19.44;39.39;102580.09;4994628;28;20199;-81
2022/04/27 10:21:56;;;;;;;10.07;4.90;;;;;;;19.42;39.34;102587.00;4981522;28;20665;-80
2022/04/27 10:24:33;;;;;;;8.47;5.20;;;;;;;19.16;39.85;102588.38;4998000;28;20194;-80
2022/04/27 10:27:13;;;;;;;7.27;4.47;;;;;;;19.65;39.11;102582.03;4994465;28;20191;-80
2022/04/27 10:29:39;;;;;;;8.30;4.77;;;;;;;19.89;39.07;102584.88;4980953;28;20207;-79
2022/04/27 10:32:05;;;;;;;7.50;4.77;;;;;;;19.92;38.97;102577.13;4977771;28;20577;-80
2022/04/27 10:34:32;;;;;;;8.17;4.63;;;;;;;20.11;38.72;102579.06;4978524;28;20608;-79
2022/04/27 10:37:00;;;;;;;10.80;6.03;;;;;;;20.11;38.72;102579.94;4979615;28;20654;-80
2022/04/27 10:39:28;;;;;;;9.27;5.30;;;;;;;20.49;38.22;102575.03;4992230;28;20218;-80
2022/04/27 10:42:02;;;;;;;10.13;5.30;;;;;;;19.18;38.93;102584.09;5001250;28;20286;-80
2022/04/27 10:44:58;;;;;;;7.37;5.37;;;;;;;19.65;39.10;102585.53;4999752;28;20190;-82
2022/04/27 10:47:24;;;;;;;8.93;5.83;;;;;;;19.90;38.21;102581.44;4966477;28;20188;-79
2022/04/27 10:50:13;;;;;;;8.33;6.00;;;;;;;20.62;36.90;102585.50;4986963;28;20220;-80
2022/04/27 10:52:53;;;;;;;7.77;5.03;;;;;;;20.59;36.05;102582.03;4975470;28;20586;-81
2022/04/27 10:55:43;;;;;;;9.30;5.40;;;;;;;20.65;36.84;102587.25;4979557;28;20187;-80
2022/04/27 10:58:18;;;;;;;8.57;5.47;;;;;;;20.83;36.39;102595.19;4995326;28;20247;-80
2022/04/27 11:00:58;;;;;;;6.70;5.10;;;;;;;20.44;36.52;102580.19;4978511;28;20218;-81
2022/04/27 11:03:31;;;;;;;10.57;6.13;;;;;;;19.77;37.67;102589.97;4997839;28;20537;-80
2022/04/27 11:06:11;;;;;;;8.80;4.90;;;;;;;19.77;38.17;102595.19;4992284;28;20191;-79
2022/04/27 11:08:36;;;;;;;8.07;5.70;;;;;;;19.86;37.93;102601.31;4996741;28;20203;-79
2022/04/27 11:11:06;;;;;;;7.47;5.27;;;;;;;19.66;37.72;102595.06;5012581;28;20313;-80
2022/04/27 11:13:33;;;;;;;9.53;4.83;;;;;;;19.55;37.81;102595.81;4979866;28;20192;-81
2022/04/27 11:16:12;;;;;;;6.53;4.40;;;;;;;17.95;40.01;102604.66;4991078;28;20206;-80
2022/04/27 11:18:49;;;;;;;6.50;4.40;;;;;;;19.68;38.77;102592.50;5010267;28;20241;-81
2022/04/27 11:21:17;;;;;;;7.57;4.60;;;;;;;20.13;36.83;102586.00;4993489;28;20695;-80
2022/04/27 11:23:42;;;;;;;6.60;4.93;;;;;;;19.35;37.28;102586.94;4993622;28;20194;-80
2022/04/27 11:26:07;;;;;;;5.90;4.10;;;;;;;20.18;36.76;102594.72;4995413;28;20281;-80
2022/04/27 11:28:36;;;;;;;6.07;4.20;;;;;;;20.15;36.54;102586.91;4997012;28;20183;-80
2022/04/27 11:31:01;;;;;;;6.27;4.50;;;;;;;20.14;37.27;102592.97;4978091;28;20228;-80
2022/04/27 11:33:27;;;;;;;8.67;4.23;;;;;;;20.81;37.67;102586.47;4959043;28;20188;-82
2022/04/27 11:35:52;;;;;;;8.87;4.20;;;;;;;21.25;35.62;102598.03;4974935;28;20177;-79
2022/04/27 11:38:19;;;;;;;8.20;4.83;;;;;;;20.33;37.44;102594.88;4975078;28;20212;-82
2022/04/27 11:40:46;;;;;;;6.43;4.30;;;;;;;20.74;37.91;102593.41;4959345;28;20216;-82
2022/04/27 11:43:11;;;;;;;7.30;4.53;;;;;;;19.97;36.62;102597.13;4994226;28;20188;-81
2022/04/27 11:45:36;;;;;;;7.03;4.20;;;;;;;19.39;37.91;102599.97;4994808;28;20195;-81
2022/04/27 11:48:04;;;;;;;6.60;3.70;;;;;;;19.43;39.25;102593.09;4979849;28;20234;-82
2022/04/27 11:50:31;;;;;;;6.13;4.47;;;;;;;20.13;37.55;102592.97;5015852;28;20253;-81
2022/04/27 11:53:08;;;;;;;8.97;4.50;;;;;;;19.91;36.74;102586.66;4997731;28;20238;-81
2022/04/27 11:55:35;;;;;;;8.00;3.50;;;;;;;21.17;35.52;102584.09;4998194;28;20170;-82
2022/04/27 11:58:02;;;;;;;5.47;3.83;;;;;;;21.30;36.33;102580.66;4997364;28;20258;-82